Time;durP1;ratioP1;P1;durP2;ratioP2;P2;SDS_P1;SDS_P2;PMS_P1;PMS_P2;Temp;Humidity;BMP_temperature;BMP_pressure;BME280_temperature;BME280_humidity;BME280_pressure;Samples;Min_cycle;Max_cycle;Signal;HPM_P1;HPM_P2
2023/09/29 00:00:14;;;;;;;1.50;1.00;;;19.50;98.20;;;;;;4951584;28;20474;-81
2023/09/29 00:02:42;;;;;;;1.50;0.90;;;19.50;98.20;;;;;;4954522;28;20497;-82
2023/09/29 00:05:10;;;;;;;1.47;0.90;;;19.50;98.20;;;;;;4953228;28;20494;-83
2023/09/29 00:07:38;;;;;;;1.47;0.90;;;19.50;98.20;;;;;;4955950;28;20492;-82
2023/09/29 00:10:08;;;;;;;1.47;0.90;;;19.50;98.20;;;;;;4946292;28;20509;-82
2023/09/29 00:12:35;;;;;;;1.50;0.90;;;19.50;98.20;;;;;;4957598;28;21055;-82
2023/09/29 00:15:03;;;;;;;1.43;0.90;;;19.50;98.20;;;;;;4952096;28;20542;-81
2023/09/29 00:17:30;;;;;;;1.50;0.90;;;19.50;98.20;;;;;;4954195;28;20486;-82
2023/09/29 00:19:57;;;;;;;1.50;0.90;;;19.50;98.20;;;;;;4950560;28;20490;-81
2023/09/29 00:22:23;;;;;;;1.47;0.90;;;19.40;98.20;;;;;;4954391;28;20489;-82
2023/09/29 00:24:52;;;;;;;1.40;0.90;;;19.40;98.20;;;;;;4951361;28;20463;-82
2023/09/29 00:27:19;;;;;;;1.50;0.90;;;19.40;98.20;;;;;;4952013;28;20581;-81
2023/09/29 00:29:45;;;;;;;1.47;0.90;;;19.40;98.20;;;;;;4952445;28;20562;-81
2023/09/29 00:32:12;;;;;;;1.47;0.90;;;19.40;98.20;;;;;;4951332;28;20485;-82
2023/09/29 00:34:39;;;;;;;1.50;0.90;;;19.40;98.20;;;;;;4953808;28;20475;-81
2023/09/29 00:37:09;;;;;;;1.50;0.90;;;19.40;98.20;;;;;;4951379;28;20886;-82
2023/09/29 00:39:36;;;;;;;1.50;1.10;;;19.40;98.20;;;;;;4952098;28;20474;-81
2023/09/29 00:42:06;;;;;;;1.47;0.90;;;19.40;98.20;;;;;;4950463;28;20489;-82
2023/09/29 00:44:33;;;;;;;1.47;0.90;;;19.40;98.20;;;;;;4953894;28;20847;-82
2023/09/29 00:47:00;;;;;;;1.50;0.90;;;19.40;98.20;;;;;;4950263;28;21012;-81
2023/09/29 00:49:29;;;;;;;1.50;0.90;;;19.40;98.20;;;;;;4953615;28;21000;-81
2023/09/29 00:51:59;;;;;;;1.50;1.00;;;19.40;98.20;;;;;;4948615;28;20490;-82
2023/09/29 00:54:27;;;;;;;1.47;0.90;;;19.40;98.20;;;;;;4953809;28;20471;-82
2023/09/29 00:56:55;;;;;;;1.50;0.90;;;19.40;98.20;;;;;;4948920;28;20488;-82
2023/09/29 00:59:24;;;;;;;1.50;1.00;;;19.40;98.20;;;;;;4953544;28;20550;-82
2023/09/29 01:01:51;;;;;;;1.47;0.90;;;19.40;98.20;;;;;;4947828;28;20485;-81
2023/09/29 01:04:18;;;;;;;1.50;0.90;;;19.50;98.20;;;;;;4953476;28;20494;-82
2023/09/29 01:06:46;;;;;;;1.50;0.90;;;19.50;98.20;;;;;;4944547;28;20478;-81
2023/09/29 01:09:14;;;;;;;1.50;1.10;;;19.50;98.20;;;;;;4958287;28;20737;-81
2023/09/29 01:11:43;;;;;;;1.47;0.90;;;19.40;98.20;;;;;;4946510;28;20497;-81
2023/09/29 01:14:11;;;;;;;1.50;0.93;;;19.40;98.20;;;;;;4951809;28;20470;-82
2023/09/29 01:16:40;;;;;;;1.47;0.90;;;19.40;98.20;;;;;;4946191;28;20481;-81
2023/09/29 01:19:12;;;;;;;1.50;0.90;;;19.40;98.20;;;;;;4952167;28;20473;-81
2023/09/29 01:21:39;;;;;;;1.50;1.00;;;19.40;98.20;;;;;;4946332;28;20520;-81
2023/09/29 01:24:08;;;;;;;1.47;0.90;;;19.40;98.20;;;;;;4952436;28;20525;-81
2023/09/29 01:26:35;;;;;;;1.50;0.90;;;19.40;98.20;;;;;;4935430;28;21188;-81
2023/09/29 01:29:01;;;;;;;1.50;1.00;;;19.40;98.20;;;;;;4954968;28;20474;-81
2023/09/29 01:31:28;;;;;;;1.50;0.90;;;19.40;98.20;;;;;;4944762;28;20482;-82
2023/09/29 01:33:55;;;;;;;1.43;0.90;;;19.40;98.20;;;;;;4960106;28;20473;-81
2023/09/29 01:36:22;;;;;;;1.50;0.90;;;19.40;98.20;;;;;;4958440;28;20632;-81
2023/09/29 01:38:49;;;;;;;1.50;1.00;;;19.40;98.20;;;;;;4971619;28;20542;-81
2023/09/29 01:41:17;;;;;;;1.50;0.90;;;19.40;98.20;;;;;;4955675;28;20505;-82
2023/09/29 01:43:45;;;;;;;1.50;0.90;;;19.40;98.20;;;;;;4968659;28;20469;-81
2023/09/29 01:46:15;;;;;;;1.50;1.00;;;19.40;98.20;;;;;;4955899;28;20505;-82
2023/09/29 01:48:41;;;;;;;1.97;1.30;;;19.40;98.20;;;;;;4970427;28;20477;-81
2023/09/29 01:51:09;;;;;;;1.50;0.90;;;19.40;98.20;;;;;;4954410;28;20489;-81
2023/09/29 01:53:36;;;;;;;1.50;1.10;;;19.40;98.20;;;;;;4972099;28;20493;-81
2023/09/29 01:56:03;;;;;;;1.50;0.90;;;19.40;98.20;;;;;;4957424;28;20459;-81
2023/09/29 01:58:31;;;;;;;1.40;0.90;;;19.40;98.20;;;;;;4974194;28;21664;-82
2023/09/29 02:00:58;;;;;;;1.50;1.00;;;19.40;98.20;;;;;;4957033;28;20459;-82
2023/09/29 02:03:25;;;;;;;1.50;1.00;;;19.40;98.20;;;;;;4969561;28;20517;-82
2023/09/29 02:05:52;;;;;;;1.47;1.00;;;19.40;98.20;;;;;;4952481;28;20929;-82
2023/09/29 02:08:19;;;;;;;1.43;0.90;;;19.30;98.20;;;;;;4971604;28;20939;-82
2023/09/29 02:10:49;;;;;;;1.43;0.90;;;19.30;98.20;;;;;;4960152;28;20915;-82
2023/09/29 02:13:16;;;;;;;1.50;0.90;;;19.30;98.20;;;;;;4951188;28;20509;-82
2023/09/29 02:15:44;;;;;;;1.50;0.90;;;19.30;98.20;;;;;;4961916;28;20503;-81
2023/09/29 02:18:11;;;;;;;1.43;0.90;;;19.20;98.20;;;;;;4964751;28;20484;-82
2023/09/29 02:20:41;;;;;;;1.50;1.00;;;19.20;98.20;;;;;;4961648;28;20522;-81
2023/09/29 02:23:08;;;;;;;1.50;0.90;;;19.20;98.20;;;;;;4962589;28;20477;-81
2023/09/29 02:25:35;;;;;;;1.50;0.90;;;19.30;98.20;;;;;;4964299;28;20469;-81
2023/09/29 02:28:02;;;;;;;1.50;1.00;;;19.20;98.20;;;;;;4968402;28;20851;-81
2023/09/29 02:30:29;;;;;;;1.47;0.90;;;19.30;98.20;;;;;;4964978;28;20470;-82
2023/09/29 02:32:58;;;;;;;1.50;0.90;;;19.30;98.20;;;;;;4968819;28;20500;-81
2023/09/29 02:35:24;;;;;;;1.47;0.90;;;19.20;98.20;;;;;;4965384;28;20474;-83
2023/09/29 02:37:52;;;;;;;1.50;0.90;;;19.20;98.20;;;;;;4969796;28;20482;-81
2023/09/29 02:40:19;;;;;;;1.50;1.00;;;19.30;98.20;;;;;;4961683;28;20467;-81
2023/09/29 02:42:46;;;;;;;1.50;0.90;;;19.30;98.20;;;;;;4970244;28;20513;-81
2023/09/29 02:45:14;;;;;;;1.50;1.00;;;19.30;98.20;;;;;;4962438;28;20466;-82
2023/09/29 02:47:42;;;;;;;1.50;0.93;;;19.30;98.20;;;;;;4971541;28;20489;-82
2023/09/29 02:50:11;;;;;;;1.50;1.10;;;19.30;98.20;;;;;;4966016;28;20998;-81
2023/09/29 02:52:39;;;;;;;1.50;0.90;;;19.30;98.20;;;;;;4969434;28;20493;-81
2023/09/29 02:55:07;;;;;;;1.43;0.90;;;19.30;98.20;;;;;;4965685;28;20494;-81
2023/09/29 02:57:34;;;;;;;1.47;0.90;;;19.30;98.20;;;;;;4970057;28;20549;-81
2023/09/29 03:00:06;;;;;;;1.50;0.90;;;19.20;98.20;;;;;;4965027;28;20462;-81
2023/09/29 03:02:33;;;;;;;1.47;0.90;;;19.20;98.20;;;;;;4970108;28;20485;-81
2023/09/29 03:05:00;;;;;;;1.50;0.90;;;19.10;98.20;;;;;;4966111;28;20582;-82
2023/09/29 03:07:28;;;;;;;1.50;0.90;;;19.10;98.20;;;;;;4963305;28;20490;-82
2023/09/29 03:09:55;;;;;;;1.50;1.00;;;19.10;98.20;;;;;;4960787;28;20550;-81
2023/09/29 03:12:22;;;;;;;1.50;0.90;;;19.10;98.20;;;;;;4967026;28;20478;-81
2023/09/29 03:14:52;;;;;;;1.50;0.90;;;19.10;98.20;;;;;;4986592;23;20508;-85
2023/09/29 03:17:47;;;;;;;1.50;0.90;;;19.10;98.20;;;;;;4983375;28;20481;-85
2023/09/29 03:20:16;;;;;;;1.47;0.90;;;19.10;98.20;;;;;;4973195;28;20969;-85
2023/09/29 03:23:20;;;;;;;1.50;0.90;;;19.10;98.20;;;;;;4988495;28;20481;-83
2023/09/29 03:25:50;;;;;;;1.47;0.90;;;19.10;98.20;;;;;;4956758;28;20466;-85
2023/09/29 03:28:19;;;;;;;1.50;1.00;;;19.10;98.20;;;;;;4975687;28;20467;-83
2023/09/29 03:30:47;;;;;;;1.43;0.90;;;19.10;98.20;;;;;;4962595;28;20494;-85
2023/09/29 03:33:15;;;;;;;1.50;0.90;;;19.10;98.20;;;;;;4952845;28;20471;-86
2023/09/29 03:36:10;;;;;;;1.50;0.90;;;19.10;98.20;;;;;;4961864;28;20520;-85
2023/09/29 03:38:59;;;;;;;1.50;1.00;;;19.10;98.20;;;;;;4947831;28;20478;-83
2023/09/29 03:41:29;;;;;;;1.50;0.90;;;19.10;98.20;;;;;;4957508;28;20566;-86
2023/09/29 03:43:56;;;;;;;1.50;1.10;;;19.10;98.20;;;;;;4968387;28;20499;-85
2023/09/29 03:46:24;;;;;;;1.40;0.90;;;19.10;98.20;;;;;;4949865;28;20496;-84
2023/09/29 03:48:52;;;;;;;1.50;1.00;;;19.10;98.20;;;;;;4972466;28;20467;-84
2023/09/29 03:51:23;;;;;;;1.43;0.90;;;19.10;98.20;;;;;;4954557;28;20492;-84
2023/09/29 03:53:57;;;;;;;1.47;0.90;;;19.10;98.20;;;;;;4968965;28;20502;-85
2023/09/29 03:56:34;;;;;;;1.50;0.90;;;19.10;98.20;;;;;;4956746;28;20496;-84
2023/09/29 03:59:13;;;;;;;1.40;0.90;;;19.10;98.20;;;;;;4968026;28;20467;-83
2023/09/29 04:01:44;;;;;;;1.50;0.97;;;19.10;98.20;;;;;;4956670;28;20505;-85
2023/09/29 04:04:11;;;;;;;1.43;0.90;;;19.10;98.20;;;;;;4966668;28;20487;-85
2023/09/29 04:06:47;;;;;;;1.50;0.90;;;19.10;98.20;;;;;;4955010;28;20545;-85
2023/09/29 04:09:14;;;;;;;1.47;0.90;;;19.10;98.20;;;;;;4969294;28;20466;-84
2023/09/29 04:11:54;;;;;;;1.50;1.00;;;19.10;98.20;;;;;;4956384;28;20500;-85
2023/09/29 04:14:20;;;;;;;1.50;1.00;;;19.10;98.20;;;;;;4959328;28;20518;-84
2023/09/29 04:16:48;;;;;;;1.50;0.90;;;19.10;98.20;;;;;;4956000;28;20472;-81
2023/09/29 04:19:35;;;;;;;1.50;0.90;;;19.10;98.20;;;;;;4963361;28;20493;-83
2023/09/29 04:23:00;;;;;;;1.50;0.90;;;19.10;98.20;;;;;;4954155;28;21042;-82
2023/09/29 04:25:27;;;;;;;1.50;0.90;;;19.10;98.20;;;;;;4956774;28;20518;-84
2023/09/29 04:27:58;;;;;;;1.50;1.00;;;19.10;98.20;;;;;;4960932;28;20477;-85
2023/09/29 04:30:31;;;;;;;1.50;1.00;;;19.10;98.20;;;;;;4961523;28;20471;-83
2023/09/29 04:36:06;;;;;;;1.50;1.00;;;19.20;98.20;;;;;;4956951;28;20470;-83
2023/09/29 04:38:36;;;;;;;2.67;1.43;;;19.20;98.20;;;;;;4952211;28;20486;-83
2023/09/29 04:41:06;;;;;;;1.50;1.10;;;19.20;98.20;;;;;;4955614;28;20470;-84
2023/09/29 04:43:38;;;;;;;1.50;0.90;;;19.20;98.20;;;;;;4970297;28;20483;-82
2023/09/29 04:46:06;;;;;;;1.47;1.00;;;19.20;98.20;;;;;;4953826;28;20474;-85
2023/09/29 04:48:33;;;;;;;1.50;1.00;;;19.20;98.20;;;;;;4966310;28;20549;-82
2023/09/29 04:51:36;;;;;;;1.50;0.97;;;19.20;98.20;;;;;;4953155;28;20501;-82
2023/09/29 04:54:06;;;;;;;1.50;0.93;;;19.20;98.20;;;;;;4963154;28;20486;-82
2023/09/29 04:56:53;;;;;;;2.13;1.93;;;19.20;98.20;;;;;;4952220;28;20506;-85
2023/09/29 04:59:23;;;;;;;1.50;1.00;;;19.10;98.20;;;;;;4964094;28;20459;-82
2023/09/29 05:01:59;;;;;;;1.50;0.90;;;19.10;98.20;;;;;;4960240;28;20477;-83
2023/09/29 05:04:27;;;;;;;1.50;0.90;;;19.10;98.20;;;;;;4963334;28;20487;-81
2023/09/29 05:07:02;;;;;;;1.50;0.90;;;19.10;98.20;;;;;;4959649;28;20490;-83
2023/09/29 05:09:32;;;;;;;1.50;1.00;;;19.10;98.20;;;;;;4970909;28;20506;-81
2023/09/29 05:12:02;;;;;;;1.40;0.90;;;19.10;98.20;;;;;;4959810;28;20709;-84
2023/09/29 05:14:34;;;;;;;1.50;1.00;;;19.10;98.20;;;;;;5054324;23;20505;-81
2023/09/29 05:17:01;;;;;;;1.47;0.93;;;19.10;98.20;;;;;;4999473;28;20518;-86
2023/09/29 05:19:28;;;;;;;1.43;1.00;;;19.00;98.20;;;;;;5007060;28;20467;-83
2023/09/29 05:22:57;;;;;;;1.50;1.10;;;19.00;98.20;;;;;;4999216;28;20502;-82
2023/09/29 05:25:30;;;;;;;1.50;1.10;;;19.00;98.20;;;;;;4987740;28;20477;-83
2023/09/29 05:27:59;;;;;;;1.50;0.90;;;19.00;98.20;;;;;;4986248;28;21078;-80
2023/09/29 05:30:27;;;;;;;1.47;0.90;;;19.00;98.20;;;;;;4979834;28;20545;-83
2023/09/29 05:32:54;;;;;;;1.47;1.00;;;19.00;98.20;;;;;;4984710;28;20472;-81
2023/09/29 05:38:41;;;;;;;1.50;0.90;;;19.00;98.20;;;;;;4895098;28;20554;-83
2023/09/29 05:41:08;;;;;;;1.43;0.90;;;19.00;98.20;;;;;;4976675;28;20481;-82
2023/09/29 05:43:35;;;;;;;1.50;0.90;;;19.00;98.20;;;;;;4990737;28;20501;-82
2023/09/29 05:46:06;;;;;;;1.50;1.00;;;19.00;98.20;;;;;;4972482;28;21096;-82
2023/09/29 05:48:32;;;;;;;1.43;0.90;;;19.10;98.20;;;;;;4994017;28;20488;-82
2023/09/29 05:51:00;;;;;;;1.63;1.30;;;19.10;98.20;;;;;;4981883;28;20654;-81
2023/09/29 05:53:27;;;;;;;1.50;1.20;;;19.20;98.20;;;;;;4992765;28;21157;-81
2023/09/29 05:55:54;;;;;;;1.43;0.90;;;19.20;98.20;;;;;;4974476;28;20466;-81
2023/09/29 05:58:21;;;;;;;1.50;1.20;;;19.30;98.20;;;;;;4993688;28;20450;-82
2023/09/29 06:00:48;;;;;;;1.50;0.90;;;19.40;98.20;;;;;;4974250;28;20969;-80
2023/09/29 06:03:16;;;;;;;1.50;0.90;;;19.40;98.20;;;;;;4993838;28;20477;-80
2023/09/29 06:05:43;;;;;;;1.43;0.90;;;19.40;98.20;;;;;;4979220;28;20563;-80
2023/09/29 06:08:16;;;;;;;1.50;0.90;;;19.40;98.20;;;;;;4983683;28;21171;-81
2023/09/29 06:10:43;;;;;;;1.50;1.00;;;19.40;98.20;;;;;;4980282;28;20869;-81
2023/09/29 06:13:09;;;;;;;1.50;1.00;;;19.50;98.20;;;;;;4978608;28;20482;-79
2023/09/29 06:15:37;;;;;;;1.50;0.93;;;19.50;98.20;;;;;;4983238;28;20477;-82
2023/09/29 06:18:04;;;;;;;1.50;1.00;;;19.50;98.20;;;;;;4987091;28;20797;-80
2023/09/29 06:21:08;;;;;;;1.50;0.90;;;19.50;98.20;;;;;;4984048;28;20454;-81
2023/09/29 06:23:38;;;;;;;1.50;0.90;;;19.60;98.20;;;;;;4977191;28;20469;-81
2023/09/29 06:26:16;;;;;;;1.50;0.90;;;19.60;98.20;;;;;;4977442;28;20457;-82
2023/09/29 06:28:43;;;;;;;1.50;0.90;;;19.60;98.20;;;;;;4993018;28;20464;-82
2023/09/29 06:31:10;;;;;;;1.50;0.90;;;19.70;98.20;;;;;;4980843;28;20501;-81
2023/09/29 06:33:37;;;;;;;1.50;0.90;;;19.70;98.20;;;;;;4991359;28;20832;-81
2023/09/29 06:36:05;;;;;;;1.50;0.90;;;19.70;98.20;;;;;;4977567;28;20472;-82
2023/09/29 06:38:32;;;;;;;1.50;1.00;;;19.80;98.20;;;;;;4991354;28;21055;-82
2023/09/29 06:40:59;;;;;;;1.50;0.90;;;19.80;98.20;;;;;;4976887;28;20458;-82
2023/09/29 06:43:26;;;;;;;1.50;1.00;;;19.80;98.20;;;;;;4991086;28;20494;-79
2023/09/29 06:45:53;;;;;;;1.70;1.43;;;19.90;98.20;;;;;;4972367;28;20548;-80
2023/09/29 06:48:20;;;;;;;1.50;1.00;;;19.90;98.20;;;;;;4993197;28;21058;-82
2023/09/29 06:50:47;;;;;;;1.50;0.90;;;19.90;98.20;;;;;;4984610;28;20488;-80
2023/09/29 06:53:15;;;;;;;1.50;0.90;;;20.00;98.20;;;;;;4993588;28;20572;-78
2023/09/29 06:55:42;;;;;;;1.50;0.90;;;20.00;98.20;;;;;;4981903;28;20731;-79
2023/09/29 06:58:09;;;;;;;1.50;1.00;;;20.10;98.20;;;;;;4992622;28;20564;-79
2023/09/29 07:00:35;;;;;;;1.50;0.90;;;20.10;98.20;;;;;;4980327;28;21036;-79
2023/09/29 07:03:02;;;;;;;1.50;0.90;;;20.20;98.20;;;;;;4985346;28;20552;-79
2023/09/29 07:05:30;;;;;;;1.50;0.90;;;20.20;98.20;;;;;;4987463;28;21004;-80
2023/09/29 07:07:56;;;;;;;1.50;0.90;;;20.30;98.20;;;;;;4985358;28;20475;-79
2023/09/29 07:10:25;;;;;;;1.50;1.00;;;20.40;98.20;;;;;;4983437;28;20477;-82
2023/09/29 07:12:53;;;;;;;1.50;1.00;;;20.50;98.20;;;;;;4982659;28;20487;-82
2023/09/29 07:15:20;;;;;;;1.50;0.97;;;20.60;98.20;;;;;;4980370;28;20509;-80
2023/09/29 07:17:47;;;;;;;1.50;0.90;;;20.70;98.20;;;;;;4988906;28;20467;-83
2023/09/29 07:20:14;;;;;;;1.50;0.90;;;20.80;98.20;;;;;;4984637;28;20516;-80
2023/09/29 07:25:56;;;;;;;1.50;0.90;;;21.00;98.20;;;;;;4959532;28;20461;-80
2023/09/29 07:28:22;;;;;;;1.50;0.90;;;21.10;98.20;;;;;;4993067;28;20521;-83
2023/09/29 07:30:50;;;;;;;1.50;1.00;;;21.10;98.20;;;;;;4974317;28;20960;-83
2023/09/29 07:33:17;;;;;;;1.50;1.10;;;21.10;98.20;;;;;;4993006;28;21038;-82
2023/09/29 07:36:05;;;;;;;1.50;0.90;;;21.00;98.20;;;;;;4979698;28;20467;-80
2023/09/29 07:38:32;;;;;;;1.50;0.90;;;21.10;98.20;;;;;;4983629;28;20588;-84
2023/09/29 07:41:04;;;;;;;1.50;0.90;;;21.10;98.20;;;;;;4976657;28;20485;-81
2023/09/29 07:43:31;;;;;;;1.50;0.90;;;21.10;98.20;;;;;;4993648;28;20486;-80
2023/09/29 07:45:58;;;;;;;1.50;1.00;;;21.10;98.20;;;;;;4973886;28;20557;-80
2023/09/29 07:48:25;;;;;;;1.50;0.90;;;21.20;98.20;;;;;;4999845;28;20544;-85
2023/09/29 07:50:52;;;;;;;1.50;0.90;;;21.30;98.20;;;;;;4978444;28;21039;-84
2023/09/29 07:53:19;;;;;;;1.50;0.90;;;21.30;98.20;;;;;;4995356;28;20485;-83
2023/09/29 07:55:46;;;;;;;1.50;0.90;;;21.50;98.20;;;;;;4979775;28;20485;-82
2023/09/29 07:58:14;;;;;;;1.80;1.43;;;21.50;98.20;;;;;;4974451;28;20509;-81
2023/09/29 08:00:41;;;;;;;1.50;0.90;;;21.70;98.20;;;;;;4981112;28;20489;-82
2023/09/29 08:03:09;;;;;;;1.50;0.90;;;21.80;98.20;;;;;;4986994;28;20478;-83
2023/09/29 08:05:36;;;;;;;1.50;0.93;;;21.90;98.20;;;;;;4978519;28;20518;-84
2023/09/29 08:08:03;;;;;;;1.60;1.20;;;22.00;98.20;;;;;;4983326;28;20517;-82
2023/09/29 08:10:30;;;;;;;1.50;0.90;;;22.10;98.20;;;;;;4982519;28;20468;-83
2023/09/29 08:12:57;;;;;;;1.50;0.90;;;22.20;98.20;;;;;;4984380;28;20479;-81
2023/09/29 08:15:25;;;;;;;1.50;0.90;;;22.20;98.20;;;;;;4977395;28;20517;-84
2023/09/29 08:17:52;;;;;;;1.50;0.90;;;22.20;98.20;;;;;;4987176;28;20477;-83
2023/09/29 08:20:20;;;;;;;1.50;0.90;;;22.20;98.20;;;;;;4984857;28;20509;-81
2023/09/29 08:22:47;;;;;;;1.60;1.10;;;22.10;98.20;;;;;;4980896;28;20484;-83
2023/09/29 08:25:14;;;;;;;1.73;1.30;;;22.10;98.20;;;;;;4978586;28;20515;-82
2023/09/29 08:27:41;;;;;;;1.50;0.90;;;22.10;98.20;;;;;;4984838;28;20504;-83
2023/09/29 08:30:10;;;;;;;1.47;0.90;;;22.00;98.20;;;;;;4987146;28;20513;-81
2023/09/29 08:32:39;;;;;;;1.50;0.90;;;22.00;98.20;;;;;;4982680;28;20488;-81
2023/09/29 08:35:06;;;;;;;1.50;0.90;;;22.10;98.20;;;;;;4980366;28;20474;-81
2023/09/29 08:37:33;;;;;;;1.50;0.90;;;22.10;98.20;;;;;;4981122;28;21077;-81
2023/09/29 08:40:00;;;;;;;1.50;0.90;;;22.20;98.20;;;;;;4985793;28;21434;-80
2023/09/29 08:42:36;;;;;;;1.50;0.90;;;22.30;98.20;;;;;;4982277;28;20543;-79
2023/09/29 08:45:06;;;;;;;1.50;0.90;;;22.30;98.20;;;;;;4975750;28;21004;-81
2023/09/29 08:47:36;;;;;;;1.50;0.90;;;22.50;98.20;;;;;;4978280;28;20935;-80
2023/09/29 08:50:05;;;;;;;1.50;0.90;;;22.70;98.20;;;;;;4981207;28;20482;-81
2023/09/29 08:52:33;;;;;;;1.50;0.90;;;22.90;98.20;;;;;;4978446;28;20487;-81
2023/09/29 08:55:00;;;;;;;1.50;0.90;;;23.20;98.20;;;;;;4980850;28;20524;-80
2023/09/29 08:57:30;;;;;;;1.50;0.90;;;23.50;98.20;;;;;;4981829;28;20480;-83
2023/09/29 08:59:58;;;;;;;1.50;0.90;;;23.70;98.20;;;;;;4980108;28;20450;-82
2023/09/29 09:02:26;;;;;;;1.50;0.90;;;23.90;98.20;;;;;;4980434;28;20642;-84
2023/09/29 09:04:53;;;;;;;1.50;0.90;;;24.10;98.20;;;;;;4979091;28;21004;-83
2023/09/29 09:07:23;;;;;;;1.50;0.90;;;24.30;98.20;;;;;;4978961;28;20513;-83
2023/09/29 09:09:53;;;;;;;1.50;0.90;;;24.50;98.20;;;;;;4976210;28;20472;-81
2023/09/29 09:12:31;;;;;;;1.50;0.90;;;24.80;98.20;;;;;;4971281;28;20965;-84
2023/09/29 09:14:58;;;;;;;1.47;0.80;;;25.00;98.20;;;;;;4975100;28;21127;-84
2023/09/29 09:17:25;;;;;;;1.50;0.90;;;25.30;98.20;;;;;;4974249;28;20485;-83
2023/09/29 09:19:53;;;;;;;1.50;0.90;;;25.60;98.20;;;;;;4980053;28;20462;-84
2023/09/29 09:22:27;;;;;;;1.47;0.90;;;25.80;98.20;;;;;;4976549;28;20937;-84
2023/09/29 09:24:59;;;;;;;1.50;0.80;;;26.00;98.20;;;;;;4983601;28;20505;-83
2023/09/29 09:27:26;;;;;;;1.47;0.87;;;26.10;98.20;;;;;;4977457;28;20476;-84
2023/09/29 09:29:57;;;;;;;1.50;0.90;;;26.00;98.20;;;;;;4981817;28;20458;-85
2023/09/29 09:32:32;;;;;;;1.50;0.80;;;26.00;98.20;;;;;;4979685;28;20499;-84
2023/09/29 09:35:00;;;;;;;1.50;0.90;;;25.80;98.20;;;;;;4977976;28;20545;-83
2023/09/29 09:37:31;;;;;;;1.50;0.90;;;25.70;98.20;;;;;;4977625;28;20565;-82
2023/09/29 09:40:38;;;;;;;1.40;0.80;;;25.50;98.20;;;;;;4979815;28;20497;-83
2023/09/29 09:43:08;;;;;;;1.50;0.80;;;25.40;98.20;;;;;;4974459;28;20492;-84
2023/09/29 09:45:44;;;;;;;1.43;0.80;;;25.20;98.20;;;;;;4977748;28;20454;-85
2023/09/29 09:48:16;;;;;;;1.50;0.90;;;25.00;98.20;;;;;;4969831;28;20469;-83
2023/09/29 09:50:54;;;;;;;1.50;0.90;;;24.80;98.20;;;;;;4974456;28;20468;-82
2023/09/29 09:54:02;;;;;;;1.50;0.87;;;24.70;98.20;;;;;;4948197;28;20553;-81
2023/09/29 09:56:50;;;;;;;1.50;0.90;;;24.50;98.20;;;;;;4967319;28;20473;-84
2023/09/29 09:59:27;;;;;;;1.50;1.00;;;24.30;98.20;;;;;;4982420;28;20514;-83
2023/09/29 10:01:56;;;;;;;1.43;0.80;;;24.20;98.20;;;;;;4960103;28;21184;-83
2023/09/29 10:04:28;;;;;;;1.47;0.90;;;24.00;98.20;;;;;;4970771;28;20987;-83
2023/09/29 10:06:56;;;;;;;1.47;0.83;;;23.90;98.20;;;;;;4969825;28;20540;-82
2023/09/29 10:09:27;;;;;;;1.43;0.80;;;23.90;98.20;;;;;;4982647;28;20464;-83
2023/09/29 10:12:06;;;;;;;1.50;0.90;;;23.80;98.20;;;;;;4976295;28;20520;-82
2023/09/29 10:14:45;;;;;;;1.50;0.90;;;23.80;98.20;;;;;;4977364;28;20485;-84
2023/09/29 10:17:13;;;;;;;1.50;0.87;;;23.80;98.20;;;;;;4973697;28;20477;-83
2023/09/29 10:19:40;;;;;;;1.43;0.90;;;23.70;98.20;;;;;;4978562;28;20545;-81
2023/09/29 10:25:20;;;;;;;1.50;0.90;;;23.80;98.20;;;;;;4932745;28;20534;-83
2023/09/29 10:27:49;;;;;;;1.47;0.80;;;23.90;98.20;;;;;;4976612;28;20524;-83
2023/09/29 10:30:19;;;;;;;1.50;0.90;;;24.10;98.20;;;;;;4976171;28;20469;-83
2023/09/29 10:32:48;;;;;;;1.47;0.90;;;24.50;98.20;;;;;;4981080;28;20620;-83
2023/09/29 10:35:19;;;;;;;1.43;0.80;;;24.80;97.80;;;;;;4976287;28;20489;-83
2023/09/29 10:37:54;;;;;;;1.50;0.90;;;25.00;97.50;;;;;;4980845;28;20485;-82
2023/09/29 10:40:25;;;;;;;1.40;0.80;;;25.30;97.60;;;;;;4972826;28;20461;-83
2023/09/29 10:42:56;;;;;;;1.43;0.90;;;25.60;96.40;;;;;;4983411;28;20541;-82
2023/09/29 10:45:29;;;;;;;1.50;0.80;;;25.70;94.70;;;;;;4977343;28;20911;-83
2023/09/29 10:48:02;;;;;;;2.63;1.57;;;25.70;94.70;;;;;;4981084;28;20492;-82
2023/09/29 10:50:29;;;;;;;1.50;0.80;;;25.80;94.40;;;;;;4975864;28;20461;-81
2023/09/29 10:52:56;;;;;;;1.67;1.30;;;25.90;93.70;;;;;;4986042;28;20484;-82
2023/09/29 10:55:24;;;;;;;1.50;0.90;;;26.00;93.90;;;;;;4978009;28;20478;-82
2023/09/29 10:57:52;;;;;;;1.50;0.90;;;26.20;94.30;;;;;;4981254;28;20544;-83
2023/09/29 11:00:20;;;;;;;1.50;0.93;;;26.30;93.00;;;;;;4974980;28;20466;-80
2023/09/29 11:02:49;;;;;;;1.50;0.80;;;26.30;92.30;;;;;;4985358;28;20480;-82
2023/09/29 11:05:16;;;;;;;1.50;0.90;;;26.20;91.80;;;;;;4979882;28;20509;-81
2023/09/29 11:07:47;;;;;;;1.50;0.90;;;26.20;92.50;;;;;;4981314;28;20858;-81
2023/09/29 11:10:15;;;;;;;1.50;0.90;;;26.20;92.90;;;;;;4980309;28;20460;-81
2023/09/29 11:12:46;;;;;;;1.50;0.80;;;26.10;92.70;;;;;;4986910;28;20493;-81
2023/09/29 11:15:14;;;;;;;1.50;0.80;;;26.10;93.00;;;;;;4975947;28;20501;-81
2023/09/29 11:17:45;;;;;;;1.50;0.83;;;26.00;93.00;;;;;;4982422;28;20510;-81
2023/09/29 11:20:25;;;;;;;1.50;0.90;;;26.00;93.00;;;;;;4978294;28;20549;-81
2023/09/29 11:23:06;;;;;;;1.50;0.80;;;25.90;93.60;;;;;;4984839;28;20482;-82
2023/09/29 11:25:33;;;;;;;1.60;1.33;;;26.00;93.80;;;;;;4981016;28;20485;-81
2023/09/29 11:28:01;;;;;;;1.50;0.90;;;26.00;93.60;;;;;;4984878;28;20490;-83
2023/09/29 11:30:29;;;;;;;1.50;0.90;;;26.00;92.70;;;;;;4979461;28;20680;-82
2023/09/29 11:32:55;;;;;;;1.50;1.00;;;26.10;92.90;;;;;;4984890;28;20686;-82
2023/09/29 11:35:22;;;;;;;1.50;0.90;;;26.30;93.20;;;;;;4979020;28;20528;-81
2023/09/29 11:37:55;;;;;;;1.43;0.80;;;26.40;92.70;;;;;;4986493;28;20521;-82
2023/09/29 11:40:22;;;;;;;1.40;0.80;;;26.60;92.40;;;;;;4981664;28;20525;-82
2023/09/29 11:42:51;;;;;;;1.87;1.30;;;26.80;92.60;;;;;;4986886;28;20492;-82
2023/09/29 11:45:19;;;;;;;1.50;0.80;;;26.90;92.00;;;;;;4980073;28;20510;-81
2023/09/29 11:47:46;;;;;;;1.50;0.80;;;27.00;91.30;;;;;;4985457;28;20485;-81
2023/09/29 11:50:13;;;;;;;1.40;0.80;;;27.00;90.40;;;;;;4978255;28;20466;-81
2023/09/29 11:52:41;;;;;;;1.47;0.80;;;26.90;90.00;;;;;;4983201;28;20488;-81
2023/09/29 11:55:11;;;;;;;1.50;0.80;;;26.80;89.90;;;;;;4979487;28;20505;-82
2023/09/29 11:57:40;;;;;;;1.47;0.80;;;26.80;90.80;;;;;;4978619;28;20481;-82
2023/09/29 12:00:09;;;;;;;1.47;0.90;;;26.90;91.10;;;;;;4976807;28;20464;-81
2023/09/29 12:02:37;;;;;;;1.50;0.90;;;27.00;90.80;;;;;;4982279;28;20495;-81
2023/09/29 12:05:06;;;;;;;1.40;0.90;;;27.00;90.60;;;;;;4972792;28;20484;-83
2023/09/29 12:07:33;;;;;;;1.50;0.90;;;27.20;91.30;;;;;;4980915;28;20996;-83
2023/09/29 12:10:00;;;;;;;1.40;0.80;;;27.20;90.10;;;;;;4979476;28;21024;-83
2023/09/29 12:12:27;;;;;;;1.47;1.00;;;27.10;90.90;;;;;;4981898;28;20826;-84
2023/09/29 12:14:54;;;;;;;1.40;0.80;;;26.90;90.40;;;;;;4978475;28;20508;-82
2023/09/29 12:17:22;;;;;;;1.50;0.87;;;26.80;91.10;;;;;;4977589;28;20481;-83
2023/09/29 12:19:50;;;;;;;1.50;0.80;;;26.70;91.50;;;;;;4980110;28;20485;-82
2023/09/29 12:22:20;;;;;;;1.40;0.80;;;26.60;91.40;;;;;;4987049;28;20480;-84
2023/09/29 12:24:48;;;;;;;1.50;0.80;;;26.50;91.70;;;;;;4976989;28;20484;-81
2023/09/29 12:27:14;;;;;;;1.50;1.00;;;26.30;92.00;;;;;;4978465;28;20503;-82
2023/09/29 12:29:45;;;;;;;1.50;0.90;;;26.00;92.80;;;;;;4983976;28;20480;-81
2023/09/29 12:32:12;;;;;;;1.43;0.80;;;25.90;93.50;;;;;;4981197;28;20512;-83
2023/09/29 12:34:41;;;;;;;1.47;0.80;;;25.70;94.30;;;;;;4979162;28;21218;-82
2023/09/29 12:37:11;;;;;;;1.47;0.80;;;25.60;94.30;;;;;;4981329;28;20531;-82
2023/09/29 12:39:39;;;;;;;1.40;0.80;;;25.50;95.20;;;;;;4978772;28;20901;-81
2023/09/29 12:42:09;;;;;;;1.47;0.90;;;25.30;95.20;;;;;;4977335;28;20500;-83
2023/09/29 12:44:36;;;;;;;1.40;0.90;;;25.20;95.40;;;;;;4971629;28;20493;-83
2023/09/29 12:47:03;;;;;;;1.50;0.90;;;25.00;97.40;;;;;;4981641;28;20489;-83
2023/09/29 12:49:30;;;;;;;1.50;0.90;;;24.80;98.20;;;;;;4979438;28;20538;-80
2023/09/29 12:51:57;;;;;;;1.47;0.90;;;24.60;98.20;;;;;;4980700;28;20904;-80
2023/09/29 12:54:25;;;;;;;1.47;0.90;;;24.50;98.20;;;;;;4974246;28;20490;-79
2023/09/29 12:56:54;;;;;;;1.50;0.90;;;24.40;98.20;;;;;;4974628;28;20664;-82
2023/09/29 12:59:23;;;;;;;1.47;0.90;;;24.40;98.20;;;;;;4973028;28;20545;-82
2023/09/29 13:01:49;;;;;;;1.43;0.90;;;24.30;98.20;;;;;;4962311;28;20652;-82
2023/09/29 13:04:16;;;;;;;1.50;0.90;;;24.30;98.20;;;;;;4975822;28;20483;-80
2023/09/29 13:06:43;;;;;;;1.47;0.90;;;24.30;98.20;;;;;;4969769;28;20998;-80
2023/09/29 13:09:11;;;;;;;1.47;0.90;;;24.20;98.20;;;;;;4978986;28;20466;-78
2023/09/29 13:11:39;;;;;;;1.50;0.90;;;24.10;98.20;;;;;;4964023;28;20596;-80
2023/09/29 13:14:06;;;;;;;1.47;0.90;;;23.90;98.20;;;;;;4981170;28;20514;-82